createdAt,value
2023-02-27T00:00:14.960Z,7.18
2023-02-27T00:02:46.590Z,6.82
2023-02-27T00:05:13.831Z,6.82
2023-02-27T00:07:41.278Z,5.85
2023-02-27T00:10:10.037Z,5.63
2023-02-27T00:12:38.526Z,5.22
2023-02-27T00:15:16.955Z,6.28
2023-02-27T00:17:44.178Z,5.50
2023-02-27T00:20:14.138Z,5.80
2023-02-27T00:22:41.916Z,5.40
2023-02-27T00:25:09.843Z,10.27
2023-02-27T00:27:37.154Z,7.68
2023-02-27T00:30:06.000Z,7.47
2023-02-27T00:32:33.348Z,6.07
2023-02-27T00:35:01.270Z,7.75
2023-02-27T00:37:28.430Z,12.63
2023-02-27T00:39:55.418Z,7.95
2023-02-27T00:42:22.422Z,8.48
2023-02-27T00:44:49.215Z,22.88
2023-02-27T00:47:16.326Z,7.55
2023-02-27T00:49:43.215Z,13.63
2023-02-27T00:52:10.117Z,13.93
2023-02-27T00:54:37.055Z,6.07
2023-02-27T00:57:04.013Z,14.98
2023-02-27T00:59:30.999Z,7.55
2023-02-27T01:01:58.248Z,8.88
2023-02-27T01:04:28.112Z,10.55
2023-02-27T01:06:54.933Z,5.50
2023-02-27T01:09:22.082Z,5.78
2023-02-27T01:11:48.964Z,4.50
2023-02-27T01:14:15.778Z,9.65
2023-02-27T01:16:45.653Z,5.28
2023-02-27T01:19:12.524Z,4.38
2023-02-27T01:21:42.090Z,4.82
2023-02-27T01:24:09.979Z,8.10
2023-02-27T01:26:37.214Z,5.03
2023-02-27T01:29:06.329Z,6.75
2023-02-27T01:31:33.697Z,4.72
2023-02-27T01:34:00.609Z,4.13
2023-02-27T01:36:27.540Z,5.90
2023-02-27T01:38:54.483Z,5.68
2023-02-27T01:41:21.330Z,6.25
2023-02-27T01:44:03.100Z,4.47
2023-02-27T01:46:31.080Z,4.40
2023-02-27T01:49:04.176Z,6.00
2023-02-27T01:51:34.593Z,5.18
2023-02-27T01:54:03.684Z,4.53
2023-02-27T01:56:32.474Z,4.43
2023-02-27T01:59:06.306Z,6.10
2023-02-27T02:01:34.963Z,9.63
2023-02-27T02:04:22.592Z,10.60
2023-02-27T02:06:54.594Z,15.27
2023-02-27T02:09:22.416Z,9.27
2023-02-27T02:11:49.551Z,28.85
2023-02-27T02:14:18.039Z,8.35
2023-02-27T02:17:03.168Z,7.75
2023-02-27T02:19:51.513Z,16.65
2023-02-27T02:22:36.534Z,5.97
2023-02-27T02:25:28.358Z,6.40
2023-02-27T02:28:13.835Z,22.83
2023-02-27T02:30:59.409Z,12.90
2023-02-27T02:33:26.148Z,3.88
2023-02-27T02:36:30.567Z,4.60
2023-02-27T02:39:09.211Z,5.80
2023-02-27T02:41:45.272Z,5.47
2023-02-27T02:44:14.976Z,3.63
2023-02-27T02:47:02.263Z,11.43
2023-02-27T02:49:41.074Z,5.10
2023-02-27T02:52:10.836Z,3.30
2023-02-27T02:54:54.547Z,4.55
2023-02-27T02:57:31.323Z,4.93
2023-02-27T03:00:15.598Z,3.35
2023-02-27T03:02:51.480Z,3.88
2023-02-27T03:05:34.744Z,4.07
2023-02-27T03:08:07.167Z,4.85
2023-02-27T03:10:36.391Z,4.07
2023-02-27T03:13:12.302Z,5.57
2023-02-27T03:15:48.273Z,4.40
2023-02-27T03:18:20.873Z,4.03
2023-02-27T03:20:56.028Z,4.20
2023-02-27T03:23:51.853Z,4.78
2023-02-27T03:26:23.262Z,4.00
2023-02-27T03:29:04.350Z,3.75
2023-02-27T03:31:52.476Z,4.95
2023-02-27T03:34:29.218Z,5.13
2023-02-27T03:37:39.629Z,5.40
2023-02-27T03:40:25.818Z,4.70
2023-02-27T03:43:07.849Z,5.07
2023-02-27T03:46:02.215Z,5.22
2023-02-27T03:48:29.600Z,6.05
2023-02-27T03:50:56.884Z,4.55
2023-02-27T03:53:40.054Z,5.95
2023-02-27T03:56:09.151Z,4.35
2023-02-27T03:58:36.366Z,8.73
2023-02-27T04:01:03.226Z,7.75
2023-02-27T04:03:34.421Z,6.70
2023-02-27T04:06:21.746Z,6.18
2023-02-27T04:09:03.394Z,4.95
2023-02-27T04:14:24.809Z,4.93
2023-02-27T04:17:10.300Z,5.68
2023-02-27T04:19:49.290Z,5.82
2023-02-27T04:22:28.110Z,5.30
2023-02-27T04:25:16.866Z,6.07
2023-02-27T04:27:49.701Z,6.22
2023-02-27T04:30:28.672Z,5.20
2023-02-27T04:33:10.952Z,6.03
2023-02-27T04:35:51.072Z,6.43
2023-02-27T04:38:51.612Z,5.43
2023-02-27T04:41:22.328Z,5.43
2023-02-27T04:43:52.050Z,4.95
2023-02-27T04:46:22.700Z,5.65
2023-02-27T04:49:08.928Z,6.30
2023-02-27T04:51:44.877Z,7.72
2023-02-27T04:54:16.462Z,9.63
2023-02-27T04:56:53.507Z,9.02
2023-02-27T04:59:28.482Z,6.80
2023-02-27T05:02:30.543Z,7.95
2023-02-27T05:05:01.412Z,7.30
2023-02-27T05:07:37.565Z,7.10
2023-02-27T05:10:08.325Z,7.05
2023-02-27T05:12:46.411Z,7.40
2023-02-27T05:15:25.586Z,6.35
2023-02-27T05:18:13.615Z,6.25
2023-02-27T05:20:54.052Z,6.15
2023-02-27T05:23:45.853Z,6.77
2023-02-27T05:28:46.785Z,7.53
2023-02-27T05:31:35.099Z,6.30
2023-02-27T05:34:22.620Z,7.20
2023-02-27T05:37:14.156Z,9.85
2023-02-27T05:39:42.996Z,9.73
2023-02-27T05:42:19.846Z,10.38
2023-02-27T05:44:54.895Z,10.77
2023-02-27T05:47:25.533Z,10.77
2023-02-27T05:50:02.144Z,11.43
2023-02-27T05:52:30.943Z,11.80
2023-02-27T05:55:24.550Z,11.38
2023-02-27T05:57:59.982Z,10.25
2023-02-27T06:00:39.188Z,11.55
2023-02-27T06:03:06.295Z,10.68
2023-02-27T06:05:33.774Z,10.50
2023-02-27T06:08:00.905Z,11.15
2023-02-27T06:10:27.984Z,10.02
2023-02-27T06:12:54.801Z,9.95
2023-02-27T06:15:23.061Z,9.65
2023-02-27T06:17:49.890Z,10.60
2023-02-27T06:20:16.960Z,9.80
2023-02-27T06:22:43.810Z,8.85
2023-02-27T06:25:10.674Z,8.93
2023-02-27T06:27:37.761Z,8.52
2023-02-27T06:30:07.462Z,8.55
2023-02-27T06:32:34.630Z,8.52
2023-02-27T06:35:01.694Z,7.72
2023-02-27T06:37:28.466Z,7.68
2023-02-27T06:39:55.285Z,8.15
2023-02-27T06:42:22.057Z,6.90
2023-02-27T06:44:48.893Z,8.07
2023-02-27T06:47:15.803Z,7.95
2023-02-27T06:49:42.603Z,8.63
2023-02-27T06:52:09.360Z,9.88
2023-02-27T06:54:36.150Z,9.27
2023-02-27T06:57:02.955Z,9.27
2023-02-27T06:59:29.725Z,9.55
2023-02-27T07:01:56.536Z,9.52
2023-02-27T07:04:23.403Z,10.32
2023-02-27T07:07:35.533Z,8.70
2023-02-27T07:09:37.334Z,8.45
2023-02-27T07:12:05.391Z,9.98
2023-02-27T07:14:32.565Z,12.88
2023-02-27T07:17:03.318Z,9.52
2023-02-27T07:19:35.953Z,8.90
2023-02-27T07:22:03.755Z,8.00
2023-02-27T07:24:30.471Z,9.07
2023-02-27T07:26:57.296Z,9.38
2023-02-27T07:29:24.067Z,9.73
2023-02-27T07:31:50.961Z,11.55
2023-02-27T07:34:17.920Z,10.68
2023-02-27T07:36:44.807Z,10.13
2023-02-27T07:39:14.910Z,9.88
2023-02-27T07:41:41.746Z,9.02
2023-02-27T07:44:16.420Z,9.30
2023-02-27T07:46:44.741Z,9.27
2023-02-27T07:49:11.735Z,8.32
2023-02-27T07:51:38.675Z,9.82
2023-02-27T07:54:05.491Z,9.48
2023-02-27T07:56:32.361Z,9.95
2023-02-27T07:58:59.232Z,9.57
2023-02-27T08:01:26.015Z,10.20
2023-02-27T08:03:53.134Z,11.00
2023-02-27T08:06:20.049Z,10.55
2023-02-27T08:08:46.884Z,10.30
2023-02-27T08:11:13.728Z,10.77
2023-02-27T08:14:00.571Z,10.23
2023-02-27T08:16:27.699Z,10.48
2023-02-27T08:18:54.682Z,10.70
2023-02-27T08:21:21.764Z,10.68
2023-02-27T08:23:48.641Z,10.00
2023-02-27T08:26:15.564Z,10.68
2023-02-27T08:28:42.787Z,10.38
2023-02-27T08:31:09.671Z,10.95
2023-02-27T08:33:36.477Z,10.52
2023-02-27T08:36:03.516Z,10.63
2023-02-27T08:38:30.403Z,10.57
2023-02-27T08:40:57.303Z,9.85
2023-02-27T08:43:24.252Z,11.32
2023-02-27T08:45:51.770Z,9.50
2023-02-27T08:48:18.829Z,10.10
2023-02-27T08:50:46.931Z,11.48
2023-02-27T08:53:14.098Z,10.68
2023-02-27T08:55:41.303Z,10.98
2023-02-27T08:58:08.630Z,11.32
2023-02-27T09:00:35.891Z,10.90
2023-02-27T09:03:02.780Z,11.43
2023-02-27T09:05:29.603Z,10.30
2023-02-27T09:07:56.360Z,10.38
2023-02-27T09:10:23.207Z,11.55
2023-02-27T09:12:50.061Z,10.60
2023-02-27T09:15:17.231Z,10.23
2023-02-27T09:17:44.213Z,10.73
2023-02-27T09:20:12.218Z,10.05
2023-02-27T09:22:39.466Z,10.60
2023-02-27T09:25:06.967Z,11.05
2023-02-27T09:27:34.728Z,11.05
2023-02-27T09:30:01.690Z,10.68
2023-02-27T09:32:28.843Z,10.02
2023-02-27T09:34:55.777Z,11.20
2023-02-27T09:37:25.039Z,10.43
2023-02-27T09:39:52.010Z,10.07
2023-02-27T09:42:25.586Z,10.02
2023-02-27T09:44:56.223Z,10.73
2023-02-27T09:47:25.995Z,10.30
2023-02-27T09:50:06.462Z,9.75
2023-02-27T09:52:36.463Z,10.25
2023-02-27T09:55:08.332Z,10.75
2023-02-27T09:57:56.474Z,9.70
2023-02-27T10:00:25.909Z,9.90
2023-02-27T10:03:10.287Z,10.20
2023-02-27T10:05:48.023Z,9.77
2023-02-27T10:08:41.619Z,9.55
2023-02-27T10:11:14.803Z,9.43
2023-02-27T10:13:56.324Z,9.63
2023-02-27T10:19:01.626Z,8.80
2023-02-27T10:21:36.996Z,8.98
2023-02-27T10:24:31.703Z,10.18
2023-02-27T10:27:01.387Z,10.15
2023-02-27T10:29:30.116Z,9.60
2023-02-27T10:32:06.783Z,8.93
2023-02-27T10:34:34.873Z,8.88
2023-02-27T10:37:05.445Z,8.35
2023-02-27T10:39:54.310Z,8.23
2023-02-27T10:42:24.240Z,9.20
2023-02-27T10:45:16.367Z,9.00
2023-02-27T10:47:44.201Z,9.60
2023-02-27T10:50:44.691Z,11.07
2023-02-27T10:53:37.843Z,7.82
2023-02-27T10:56:08.477Z,8.27
2023-02-27T10:58:37.240Z,8.05
2023-02-27T11:01:12.964Z,7.95
2023-02-27T11:03:43.110Z,9.05
2023-02-27T11:06:24.702Z,7.30
2023-02-27T11:11:37.969Z,8.00
2023-02-27T11:14:28.082Z,7.70
2023-02-27T11:16:57.745Z,7.95
2023-02-27T11:19:29.947Z,8.65
2023-02-27T11:22:16.308Z,8.95
2023-02-27T11:24:43.359Z,8.07
2023-02-27T11:27:29.081Z,8.02
2023-02-27T11:30:00.364Z,7.82
2023-02-27T11:32:37.268Z,8.13
2023-02-27T11:35:05.667Z,7.53
2023-02-27T11:37:36.798Z,7.80
2023-02-27T11:40:15.600Z,7.82
2023-02-27T11:42:47.600Z,7.65
2023-02-27T11:46:04.860Z,7.00
2023-02-27T11:49:02.986Z,6.97
2023-02-27T11:51:32.951Z,7.05
2023-02-27T11:54:30.020Z,7.40
2023-02-27T11:57:04.375Z,6.82
2023-02-27T11:59:47.962Z,7.10
2023-02-27T12:02:22.524Z,6.40
2023-02-27T12:04:55.459Z,6.75
2023-02-27T12:07:28.073Z,6.93
2023-02-27T12:10:04.703Z,6.72
2023-02-27T12:12:40.974Z,6.70
2023-02-27T12:15:30.089Z,6.85
2023-02-27T12:18:05.441Z,6.95
2023-02-27T12:20:37.920Z,6.40
2023-02-27T12:23:31.493Z,7.15
2023-02-27T12:26:08.399Z,8.02
2023-02-27T12:29:04.875Z,7.15
2023-02-27T12:31:36.422Z,7.22
2023-02-27T12:34:15.099Z,7.40
2023-02-27T12:36:42.115Z,7.80
2023-02-27T12:39:23.766Z,7.18
2023-02-27T12:42:18.735Z,7.50
2023-02-27T12:45:17.034Z,6.90
2023-02-27T12:47:55.810Z,6.70
2023-02-27T12:50:25.517Z,6.30
2023-02-27T12:53:23.361Z,7.45
2023-02-27T12:55:59.794Z,6.22
2023-02-27T12:58:40.345Z,6.50
2023-02-27T13:01:26.646Z,5.95
2023-02-27T13:04:16.964Z,4.85
2023-02-27T13:06:55.489Z,5.15
2023-02-27T13:09:32.610Z,5.13
2023-02-27T13:12:21.122Z,5.18
2023-02-27T13:14:55.406Z,4.60
2023-02-27T13:17:37.752Z,5.25
2023-02-27T13:20:40.178Z,4.78
2023-02-27T13:23:24.460Z,5.45
2023-02-27T13:25:54.984Z,4.75
2023-02-27T13:28:28.090Z,5.10
2023-02-27T13:31:12.687Z,4.55
2023-02-27T13:33:45.545Z,6.40
2023-02-27T13:36:39.119Z,8.38
2023-02-27T13:39:40.946Z,6.43
2023-02-27T13:42:26.561Z,7.55
2023-02-27T13:44:58.933Z,6.90
2023-02-27T13:47:48.837Z,7.85
2023-02-27T13:50:18.749Z,8.07
2023-02-27T13:52:46.981Z,8.77
2023-02-27T13:55:34.877Z,9.20
2023-02-27T13:58:03.931Z,9.90
2023-02-27T14:00:34.164Z,10.45
2023-02-27T14:03:32.193Z,11.13
2023-02-27T14:06:03.788Z,8.60
2023-02-27T14:08:46.950Z,8.75
2023-02-27T14:11:22.781Z,9.25
2023-02-27T14:13:54.680Z,9.27
2023-02-27T14:16:44.107Z,8.18
2023-02-27T14:19:17.271Z,9.10
2023-02-27T14:21:54.459Z,8.80
2023-02-27T14:25:01.088Z,9.68
2023-02-27T14:27:39.341Z,12.68
2023-02-27T14:30:10.158Z,9.35
2023-02-27T14:32:37.959Z,8.18
2023-02-27T14:35:06.602Z,8.40
2023-02-27T14:37:36.433Z,8.30
2023-02-27T14:40:06.284Z,8.18
2023-02-27T14:42:51.228Z,8.15
2023-02-27T14:45:25.161Z,8.68
2023-02-27T14:47:53.194Z,9.15
2023-02-27T14:50:34.154Z,7.32
2023-02-27T14:53:06.990Z,6.88
2023-02-27T14:55:35.981Z,6.57
2023-02-27T14:58:19.076Z,6.50
2023-02-27T15:01:02.035Z,9.73
2023-02-27T15:03:59.275Z,9.13
2023-02-27T15:06:42.813Z,7.45
2023-02-27T15:09:23.930Z,6.45
2023-02-27T15:12:03.605Z,6.75
2023-02-27T15:14:37.621Z,6.88
2023-02-27T15:17:14.816Z,9.13
2023-02-27T15:19:51.273Z,5.60
2023-02-27T15:22:37.675Z,6.50
2023-02-27T15:25:08.096Z,6.70
2023-02-27T15:27:37.630Z,7.25
2023-02-27T15:30:05.267Z,22.23
2023-02-27T15:32:35.861Z,8.35
2023-02-27T15:35:12.666Z,9.27
2023-02-27T15:37:40.381Z,7.50
2023-02-27T15:40:16.493Z,6.53
2023-02-27T15:42:44.751Z,6.70
2023-02-27T15:45:19.867Z,6.93
2023-02-27T15:47:47.621Z,7.50
2023-02-27T15:50:17.278Z,7.10
2023-02-27T15:52:52.702Z,9.25
2023-02-27T15:55:27.398Z,10.13
2023-02-27T15:58:02.811Z,15.90
2023-02-27T16:00:34.308Z,18.45
2023-02-27T16:03:01.402Z,22.92
2023-02-27T16:05:34.628Z,34.40
2023-02-27T16:08:02.946Z,42.30
2023-02-27T16:10:37.824Z,21.90
2023-02-27T16:13:41.202Z,26.60
2023-02-27T16:16:35.409Z,23.33
2023-02-27T16:19:28.213Z,10.80
2023-02-27T16:22:07.201Z,13.32
2023-02-27T16:24:34.269Z,10.88
2023-02-27T16:27:01.944Z,9.15
2023-02-27T16:29:34.530Z,8.48
2023-02-27T16:32:01.923Z,9.32
2023-02-27T16:34:44.608Z,10.15
2023-02-27T16:37:24.764Z,10.80
2023-02-27T16:39:52.366Z,9.57
2023-02-27T16:42:19.370Z,8.77
2023-02-27T16:44:46.463Z,8.23
2023-02-27T16:47:13.399Z,9.25
2023-02-27T16:49:40.565Z,10.48
2023-02-27T16:52:11.061Z,9.70
2023-02-27T16:54:37.993Z,10.70
2023-02-27T16:57:05.140Z,11.25
2023-02-27T16:59:39.181Z,12.48
2023-02-27T17:02:11.230Z,14.40
2023-02-27T17:04:38.049Z,15.90
2023-02-27T17:07:06.654Z,17.38
2023-02-27T17:09:33.631Z,13.93
2023-02-27T17:12:00.434Z,14.02
2023-02-27T17:14:27.347Z,14.32
2023-02-27T17:16:54.214Z,14.52
2023-02-27T17:19:22.263Z,13.30
2023-02-27T17:21:49.283Z,12.40
2023-02-27T17:24:16.346Z,20.90
2023-02-27T17:26:43.303Z,13.95
2023-02-27T17:29:10.253Z,14.15
2023-02-27T17:31:37.200Z,15.68
2023-02-27T17:34:05.545Z,15.98
2023-02-27T17:36:32.536Z,18.27
2023-02-27T17:39:02.830Z,17.77
2023-02-27T17:41:31.521Z,19.60
2023-02-27T17:43:59.574Z,16.52
2023-02-27T17:46:28.378Z,17.02
2023-02-27T17:49:00.021Z,18.75
2023-02-27T17:53:55.456Z,23.65
2023-02-27T17:56:22.384Z,28.35
2023-02-27T17:58:49.601Z,21.40
2023-02-27T18:01:21.554Z,27.00
2023-02-27T18:03:49.485Z,20.70
2023-02-27T18:06:17.083Z,24.83
2023-02-27T18:08:44.192Z,20.05
2023-02-27T18:11:12.851Z,26.67
2023-02-27T18:13:40.793Z,25.05
2023-02-27T18:22:33.662Z,21.58
2023-02-27T18:25:01.041Z,22.25
2023-02-27T18:27:28.180Z,23.17
2023-02-27T18:29:57.739Z,24.70
2023-02-27T18:32:25.070Z,21.17
2023-02-27T18:34:53.507Z,25.33
2023-02-27T18:37:20.595Z,24.42
2023-02-27T18:39:47.846Z,24.67
2023-02-27T18:42:14.603Z,24.73
2023-02-27T18:44:42.175Z,25.92
2023-02-27T18:47:09.772Z,25.00
2023-02-27T18:49:36.786Z,25.98
2023-02-27T18:52:04.033Z,24.60
2023-02-27T18:54:31.063Z,23.45
2023-02-27T18:56:57.856Z,20.48
2023-02-27T18:59:24.912Z,22.27
2023-02-27T19:01:51.772Z,22.27
2023-02-27T19:04:18.660Z,24.58
2023-02-27T19:06:45.683Z,24.67
2023-02-27T19:09:16.257Z,25.50
2023-02-27T19:11:47.236Z,23.80
2023-02-27T19:14:16.080Z,26.95
2023-02-27T19:16:43.474Z,24.42
2023-02-27T19:19:12.034Z,22.95
2023-02-27T19:21:39.591Z,21.58
2023-02-27T19:24:07.663Z,23.48
2023-02-27T19:26:34.817Z,21.15
2023-02-27T19:29:02.135Z,21.77
2023-02-27T19:31:29.158Z,19.33
2023-02-27T19:33:56.335Z,22.13
2023-02-27T19:36:25.305Z,23.95
2023-02-27T19:38:52.829Z,23.27
2023-02-27T19:41:20.794Z,23.98
2023-02-27T19:43:48.744Z,23.52
2023-02-27T19:46:18.783Z,21.83
2023-02-27T19:48:46.548Z,21.65
2023-02-27T19:51:14.820Z,23.65
2023-02-27T19:53:45.858Z,24.30
2023-02-27T19:56:17.510Z,23.40
2023-02-27T19:58:45.936Z,21.60
2023-02-27T20:01:12.939Z,22.38
2023-02-27T20:03:43.751Z,22.88
2023-02-27T20:08:49.028Z,20.13
2023-02-27T20:11:17.593Z,22.10
2023-02-27T20:13:45.212Z,21.77
2023-02-27T20:16:14.767Z,21.40
2023-02-27T20:18:42.762Z,22.08
2023-02-27T20:21:16.528Z,27.27
2023-02-27T20:23:46.287Z,23.73
2023-02-27T20:26:17.073Z,22.70
2023-02-27T20:28:45.098Z,22.17
2023-02-27T20:31:13.138Z,23.98
2023-02-27T20:33:41.026Z,23.92
2023-02-27T20:36:10.116Z,27.13
2023-02-27T20:38:39.219Z,23.85
2023-02-27T20:41:07.945Z,22.10
2023-02-27T20:43:37.644Z,22.83
2023-02-27T20:46:07.379Z,23.20
2023-02-27T20:48:34.671Z,22.92
2023-02-27T20:51:06.434Z,21.77
2023-02-27T20:53:35.344Z,20.77
2023-02-27T20:56:02.340Z,20.60
2023-02-27T20:58:29.371Z,21.77
2023-02-27T21:00:56.187Z,19.38
2023-02-27T21:03:23.226Z,18.38
2023-02-27T21:05:51.407Z,19.05
2023-02-27T21:08:18.838Z,18.30
2023-02-27T21:10:51.053Z,18.33
2023-02-27T21:13:18.853Z,19.60
2023-02-27T21:15:46.516Z,16.60
2023-02-27T21:18:13.752Z,17.15
2023-02-27T21:20:44.732Z,17.90
2023-02-27T21:23:12.178Z,16.73
2023-02-27T21:25:43.183Z,18.23
2023-02-27T21:28:11.148Z,17.25
2023-02-27T21:30:38.167Z,16.70
2023-02-27T21:33:05.334Z,17.02
2023-02-27T21:35:32.464Z,15.82
2023-02-27T21:37:59.724Z,18.42
2023-02-27T21:40:26.535Z,18.35
2023-02-27T21:42:53.785Z,16.98
2023-02-27T21:45:21.218Z,16.27
2023-02-27T21:47:48.517Z,15.30
2023-02-27T21:50:15.528Z,12.90
2023-02-27T21:52:43.460Z,16.05
2023-02-27T21:55:11.552Z,13.30
2023-02-27T21:57:40.171Z,13.38
2023-02-27T22:00:11.495Z,12.68
2023-02-27T22:02:39.476Z,13.18
2023-02-27T22:05:07.121Z,11.85
2023-02-27T22:07:34.019Z,12.73
2023-02-27T22:10:00.822Z,10.82
2023-02-27T22:12:27.825Z,9.85
2023-02-27T22:14:55.002Z,9.35
2023-02-27T22:17:21.894Z,9.32
2023-02-27T22:19:48.696Z,10.00
2023-02-27T22:22:15.528Z,10.32
2023-02-27T22:24:42.363Z,10.55
2023-02-27T22:27:09.453Z,10.93
2023-02-27T22:29:38.538Z,10.57
2023-02-27T22:32:06.653Z,10.70
2023-02-27T22:34:33.482Z,9.63
2023-02-27T22:37:00.619Z,10.10
2023-02-27T22:39:27.361Z,8.85
2023-02-27T22:41:56.484Z,8.15
2023-02-27T22:44:23.880Z,8.75
2023-02-27T22:46:50.902Z,7.80
2023-02-27T22:49:20.934Z,8.50
2023-02-27T22:51:50.767Z,9.70
2023-02-27T22:54:20.386Z,9.13
2023-02-27T22:56:50.237Z,8.98
2023-02-27T22:59:17.168Z,9.48
2023-02-27T23:01:44.048Z,8.65
2023-02-27T23:04:12.203Z,8.25
2023-02-27T23:06:40.664Z,9.30
2023-02-27T23:09:11.284Z,9.15
2023-02-27T23:11:38.416Z,10.87
2023-02-27T23:14:05.379Z,9.85
2023-02-27T23:16:32.511Z,7.25
2023-02-27T23:19:00.340Z,7.43
2023-02-27T23:21:34.500Z,7.75
2023-02-27T23:24:06.949Z,7.75
2023-02-27T23:26:38.737Z,8.07
2023-02-27T23:29:06.875Z,8.48
2023-02-27T23:31:35.813Z,7.28
2023-02-27T23:34:06.049Z,6.53
2023-02-27T23:36:34.893Z,6.32
2023-02-27T23:39:05.667Z,6.60
2023-02-27T23:41:33.150Z,6.35
2023-02-27T23:44:18.650Z,6.85
2023-02-27T23:46:45.498Z,6.28
2023-02-27T23:49:12.415Z,5.32
2023-02-27T23:51:39.705Z,5.70
2023-02-27T23:54:06.549Z,5.18
2023-02-27T23:56:34.300Z,5.32
2023-02-27T23:59:03.831Z,5.07
